Terminal Aerodrome Forecast
Issued by NWS

Home | Current Version | Previous Version | Text Only | Print | Product List | Glossary On
Versions: 1 2 3 4 5 6 7 8 9 10 11 12 13 14 15 16 17 18 19 20 21 22 23
417
FTUS43 KDLH 031722
TAFBRD
TAF
KBRD 031722Z 0318/0418 19008KT P6SM OVC021
     FM032300 16006KT P6SM BKN020
     FM040200 16007KT P6SM VCSH OVC015
     FM040400 16007KT 3SM -SN OVC008
     FM041200 17007KT 2SM -SN OVC003
     FM041700 20007KT P6SM VCSH OVC008=

USA.gov is the U.S. government's official web portal to all federal, state and local government web resources and services.